sensor_id;sensor_type;location;lat;lon;timestamp;temperature;humidity
34646;DHT22;20857;47.808;12.482;2023-11-19T00:00:25;4.40;99.90
34646;DHT22;20857;47.808;12.482;2023-11-19T00:02:51;4.40;99.90
34646;DHT22;20857;47.808;12.482;2023-11-19T00:05:17;4.40;99.90
34646;DHT22;20857;47.808;12.482;2023-11-19T00:07:42;4.40;99.90
34646;DHT22;20857;47.808;12.482;2023-11-19T00:10:14;4.50;99.90
34646;DHT22;20857;47.808;12.482;2023-11-19T00:12:45;4.50;99.90
34646;DHT22;20857;47.808;12.482;2023-11-19T00:15:12;4.50;99.90
34646;DHT22;20857;47.808;12.482;2023-11-19T00:17:41;4.50;99.90
34646;DHT22;20857;47.808;12.482;2023-11-19T00:20:20;4.60;99.90
34646;DHT22;20857;47.808;12.482;2023-11-19T00:22:49;4.60;99.90
34646;DHT22;20857;47.808;12.482;2023-11-19T00:25:18;4.60;99.90
34646;DHT22;20857;47.808;12.482;2023-11-19T00:27:44;4.60;99.90
34646;DHT22;20857;47.808;12.482;2023-11-19T00:30:10;4.70;99.90
34646;DHT22;20857;47.808;12.482;2023-11-19T00:32:36;4.70;99.90
34646;DHT22;20857;47.808;12.482;2023-11-19T00:35:04;4.70;99.90
34646;DHT22;20857;47.808;12.482;2023-11-19T00:37:34;4.70;99.90
34646;DHT22;20857;47.808;12.482;2023-11-19T00:40:00;4.80;99.90
34646;DHT22;20857;47.808;12.482;2023-11-19T00:42:25;4.70;99.90
34646;DHT22;20857;47.808;12.482;2023-11-19T00:44:52;4.80;99.90
34646;DHT22;20857;47.808;12.482;2023-11-19T00:47:18;4.80;99.90
34646;DHT22;20857;47.808;12.482;2023-11-19T00:49:46;4.70;99.90
34646;DHT22;20857;47.808;12.482;2023-11-19T00:52:14;4.80;99.90
34646;DHT22;20857;47.808;12.482;2023-11-19T00:54:39;4.80;99.90
34646;DHT22;20857;47.808;12.482;2023-11-19T00:57:05;4.80;99.90
34646;DHT22;20857;47.808;12.482;2023-11-19T00:59:31;4.80;99.90
34646;DHT22;20857;47.808;12.482;2023-11-19T01:01:58;4.80;99.90
34646;DHT22;20857;47.808;12.482;2023-11-19T01:04:24;4.90;99.90
34646;DHT22;20857;47.808;12.482;2023-11-19T01:06:50;4.90;99.90
34646;DHT22;20857;47.808;12.482;2023-11-19T01:09:15;4.90;99.90
34646;DHT22;20857;47.808;12.482;2023-11-19T01:11:41;4.90;99.90
34646;DHT22;20857;47.808;12.482;2023-11-19T01:14:06;4.90;99.90
34646;DHT22;20857;47.808;12.482;2023-11-19T01:16:32;4.90;99.90
34646;DHT22;20857;47.808;12.482;2023-11-19T01:18:58;4.90;99.90
34646;DHT22;20857;47.808;12.482;2023-11-19T01:21:24;5.00;99.90
34646;DHT22;20857;47.808;12.482;2023-11-19T01:23:50;4.90;99.90
34646;DHT22;20857;47.808;12.482;2023-11-19T01:26:15;4.90;99.90
34646;DHT22;20857;47.808;12.482;2023-11-19T01:28:42;4.90;99.90
34646;DHT22;20857;47.808;12.482;2023-11-19T01:31:12;5.00;99.90
34646;DHT22;20857;47.808;12.482;2023-11-19T01:33:40;5.00;99.90
34646;DHT22;20857;47.808;12.482;2023-11-19T01:36:07;5.00;99.90
34646;DHT22;20857;47.808;12.482;2023-11-19T01:38:33;5.00;99.90
34646;DHT22;20857;47.808;12.482;2023-11-19T01:40:59;5.00;99.90
34646;DHT22;20857;47.808;12.482;2023-11-19T01:43:38;5.00;99.90
34646;DHT22;20857;47.808;12.482;2023-11-19T01:46:06;5.00;99.90
34646;DHT22;20857;47.808;12.482;2023-11-19T01:48:35;5.00;99.90
34646;DHT22;20857;47.808;12.482;2023-11-19T01:51:03;5.10;99.90
34646;DHT22;20857;47.808;12.482;2023-11-19T01:53:29;5.00;99.90
34646;DHT22;20857;47.808;12.482;2023-11-19T01:55:56;5.10;99.90
34646;DHT22;20857;47.808;12.482;2023-11-19T01:58:22;5.10;99.90
34646;DHT22;20857;47.808;12.482;2023-11-19T02:00:48;5.10;99.90
34646;DHT22;20857;47.808;12.482;2023-11-19T02:03:14;5.10;99.90
34646;DHT22;20857;47.808;12.482;2023-11-19T02:05:40;5.10;99.90
34646;DHT22;20857;47.808;12.482;2023-11-19T02:08:07;5.20;99.90
34646;DHT22;20857;47.808;12.482;2023-11-19T02:10:33;5.20;99.90
34646;DHT22;20857;47.808;12.482;2023-11-19T02:12:59;5.20;99.90
34646;DHT22;20857;47.808;12.482;2023-11-19T02:15:26;5.20;99.90
34646;DHT22;20857;47.808;12.482;2023-11-19T02:17:51;5.20;99.90
34646;DHT22;20857;47.808;12.482;2023-11-19T02:20:17;5.40;99.90
34646;DHT22;20857;47.808;12.482;2023-11-19T02:22:48;5.30;99.90
34646;DHT22;20857;47.808;12.482;2023-11-19T02:25:30;5.30;99.90
34646;DHT22;20857;47.808;12.482;2023-11-19T02:27:59;5.30;99.90
34646;DHT22;20857;47.808;12.482;2023-11-19T02:30:26;5.30;99.90
34646;DHT22;20857;47.808;12.482;2023-11-19T02:32:58;5.40;99.90
34646;DHT22;20857;47.808;12.482;2023-11-19T02:35:26;5.40;99.90
34646;DHT22;20857;47.808;12.482;2023-11-19T02:37:52;5.40;99.90
34646;DHT22;20857;47.808;12.482;2023-11-19T02:40:17;5.40;99.90
34646;DHT22;20857;47.808;12.482;2023-11-19T02:42:43;5.40;99.90
34646;DHT22;20857;47.808;12.482;2023-11-19T02:45:09;5.40;99.90
34646;DHT22;20857;47.808;12.482;2023-11-19T02:47:40;5.40;99.90
34646;DHT22;20857;47.808;12.482;2023-11-19T02:50:08;5.40;99.90
34646;DHT22;20857;47.808;12.482;2023-11-19T02:52:40;5.30;99.90
34646;DHT22;20857;47.808;12.482;2023-11-19T02:55:06;5.30;99.90
34646;DHT22;20857;47.808;12.482;2023-11-19T02:57:35;5.40;99.90
34646;DHT22;20857;47.808;12.482;2023-11-19T03:00:01;5.30;99.90
34646;DHT22;20857;47.808;12.482;2023-11-19T03:02:39;5.40;99.90
34646;DHT22;20857;47.808;12.482;2023-11-19T03:05:10;5.50;99.90
34646;DHT22;20857;47.808;12.482;2023-11-19T03:07:36;5.40;99.90
34646;DHT22;20857;47.808;12.482;2023-11-19T03:10:02;5.40;99.90
34646;DHT22;20857;47.808;12.482;2023-11-19T03:12:30;5.50;99.90
34646;DHT22;20857;47.808;12.482;2023-11-19T03:14:56;5.50;99.90
34646;DHT22;20857;47.808;12.482;2023-11-19T03:17:21;5.50;99.90
34646;DHT22;20857;47.808;12.482;2023-11-19T03:19:49;5.40;99.90
34646;DHT22;20857;47.808;12.482;2023-11-19T03:22:15;5.50;99.90
34646;DHT22;20857;47.808;12.482;2023-11-19T03:24:40;5.50;99.90
34646;DHT22;20857;47.808;12.482;2023-11-19T03:27:06;5.50;99.90
34646;DHT22;20857;47.808;12.482;2023-11-19T03:29:31;5.60;99.90
34646;DHT22;20857;47.808;12.482;2023-11-19T03:31:57;5.60;99.90
34646;DHT22;20857;47.808;12.482;2023-11-19T03:34:22;5.70;99.90
34646;DHT22;20857;47.808;12.482;2023-11-19T03:36:48;5.70;99.90
34646;DHT22;20857;47.808;12.482;2023-11-19T03:39:14;5.70;99.90
34646;DHT22;20857;47.808;12.482;2023-11-19T03:41:39;5.80;99.90
34646;DHT22;20857;47.808;12.482;2023-11-19T03:44:05;6.00;99.90
34646;DHT22;20857;47.808;12.482;2023-11-19T03:46:31;6.00;99.90
34646;DHT22;20857;47.808;12.482;2023-11-19T03:48:56;6.10;99.90
34646;DHT22;20857;47.808;12.482;2023-11-19T03:51:22;6.10;99.90
34646;DHT22;20857;47.808;12.482;2023-11-19T03:53:48;6.10;99.90
34646;DHT22;20857;47.808;12.482;2023-11-19T03:56:13;6.10;99.90
34646;DHT22;20857;47.808;12.482;2023-11-19T03:58:39;6.00;99.90
34646;DHT22;20857;47.808;12.482;2023-11-19T04:01:05;6.00;99.90
34646;DHT22;20857;47.808;12.482;2023-11-19T04:03:31;5.90;99.90
34646;DHT22;20857;47.808;12.482;2023-11-19T04:05:57;6.00;99.90
34646;DHT22;20857;47.808;12.482;2023-11-19T04:08:22;6.00;99.90
34646;DHT22;20857;47.808;12.482;2023-11-19T04:10:48;6.00;99.90
34646;DHT22;20857;47.808;12.482;2023-11-19T04:13:14;6.00;99.90
34646;DHT22;20857;47.808;12.482;2023-11-19T04:15:39;5.90;99.90
34646;DHT22;20857;47.808;12.482;2023-11-19T04:18:05;5.90;99.90
34646;DHT22;20857;47.808;12.482;2023-11-19T04:20:31;5.90;99.90
34646;DHT22;20857;47.808;12.482;2023-11-19T04:22:57;6.00;99.90
34646;DHT22;20857;47.808;12.482;2023-11-19T04:25:23;6.00;99.90
34646;DHT22;20857;47.808;12.482;2023-11-19T04:27:51;6.10;99.90
34646;DHT22;20857;47.808;12.482;2023-11-19T04:30:17;6.00;99.90
34646;DHT22;20857;47.808;12.482;2023-11-19T04:32:43;6.00;99.90
34646;DHT22;20857;47.808;12.482;2023-11-19T04:35:09;6.10;99.90
34646;DHT22;20857;47.808;12.482;2023-11-19T04:37:35;6.10;99.90
34646;DHT22;20857;47.808;12.482;2023-11-19T04:40:00;6.10;99.90
34646;DHT22;20857;47.808;12.482;2023-11-19T04:42:26;6.10;99.90
34646;DHT22;20857;47.808;12.482;2023-11-19T04:44:52;6.20;99.90
34646;DHT22;20857;47.808;12.482;2023-11-19T04:47:17;6.20;99.90
34646;DHT22;20857;47.808;12.482;2023-11-19T04:49:43;6.20;99.90
34646;DHT22;20857;47.808;12.482;2023-11-19T04:52:09;6.30;99.90
34646;DHT22;20857;47.808;12.482;2023-11-19T04:54:35;6.40;99.90
34646;DHT22;20857;47.808;12.482;2023-11-19T04:57:00;6.50;99.90
34646;DHT22;20857;47.808;12.482;2023-11-19T04:59:26;6.50;99.90
34646;DHT22;20857;47.808;12.482;2023-11-19T05:01:53;6.50;99.90
34646;DHT22;20857;47.808;12.482;2023-11-19T05:04:18;6.60;99.90
34646;DHT22;20857;47.808;12.482;2023-11-19T05:06:44;6.60;99.90
34646;DHT22;20857;47.808;12.482;2023-11-19T05:09:09;6.50;99.90
34646;DHT22;20857;47.808;12.482;2023-11-19T05:11:38;6.50;99.90
34646;DHT22;20857;47.808;12.482;2023-11-19T05:14:04;6.60;99.90
34646;DHT22;20857;47.808;12.482;2023-11-19T05:16:30;6.60;99.90
34646;DHT22;20857;47.808;12.482;2023-11-19T05:18:56;6.60;99.90
34646;DHT22;20857;47.808;12.482;2023-11-19T05:21:22;6.60;99.90
34646;DHT22;20857;47.808;12.482;2023-11-19T05:23:47;6.60;99.90
34646;DHT22;20857;47.808;12.482;2023-11-19T05:26:20;6.60;99.90
34646;DHT22;20857;47.808;12.482;2023-11-19T05:28:46;6.60;99.90
34646;DHT22;20857;47.808;12.482;2023-11-19T05:31:12;6.50;99.90
34646;DHT22;20857;47.808;12.482;2023-11-19T05:33:38;6.50;99.90
34646;DHT22;20857;47.808;12.482;2023-11-19T05:36:05;6.60;99.90
34646;DHT22;20857;47.808;12.482;2023-11-19T05:38:30;6.60;99.90
34646;DHT22;20857;47.808;12.482;2023-11-19T05:40:56;6.50;99.90
34646;DHT22;20857;47.808;12.482;2023-11-19T05:43:22;6.60;99.90
34646;DHT22;20857;47.808;12.482;2023-11-19T05:45:48;6.50;99.90
34646;DHT22;20857;47.808;12.482;2023-11-19T05:48:13;6.60;99.90
34646;DHT22;20857;47.808;12.482;2023-11-19T05:50:39;6.60;99.90
34646;DHT22;20857;47.808;12.482;2023-11-19T05:53:05;6.60;99.90
34646;DHT22;20857;47.808;12.482;2023-11-19T05:55:34;6.60;99.90
34646;DHT22;20857;47.808;12.482;2023-11-19T05:58:00;6.60;99.90
34646;DHT22;20857;47.808;12.482;2023-11-19T06:00:25;6.70;99.90
34646;DHT22;20857;47.808;12.482;2023-11-19T06:02:52;6.70;99.90
34646;DHT22;20857;47.808;12.482;2023-11-19T06:05:18;6.70;99.90
34646;DHT22;20857;47.808;12.482;2023-11-19T06:07:43;6.80;99.90
34646;DHT22;20857;47.808;12.482;2023-11-19T06:10:09;6.80;99.90
34646;DHT22;20857;47.808;12.482;2023-11-19T06:12:36;6.80;99.90
34646;DHT22;20857;47.808;12.482;2023-11-19T06:15:05;6.90;99.90
34646;DHT22;20857;47.808;12.482;2023-11-19T06:17:31;6.90;99.90
34646;DHT22;20857;47.808;12.482;2023-11-19T06:19:57;6.90;99.90
34646;DHT22;20857;47.808;12.482;2023-11-19T06:22:22;7.00;99.90
34646;DHT22;20857;47.808;12.482;2023-11-19T06:24:48;7.10;99.90
34646;DHT22;20857;47.808;12.482;2023-11-19T06:27:13;7.00;99.90
34646;DHT22;20857;47.808;12.482;2023-11-19T06:29:39;7.10;99.90
34646;DHT22;20857;47.808;12.482;2023-11-19T06:32:06;7.10;99.90
34646;DHT22;20857;47.808;12.482;2023-11-19T06:34:33;7.00;99.90
34646;DHT22;20857;47.808;12.482;2023-11-19T06:36:59;7.10;99.90
34646;DHT22;20857;47.808;12.482;2023-11-19T06:39:25;7.10;99.90
34646;DHT22;20857;47.808;12.482;2023-11-19T06:41:50;7.20;99.90
34646;DHT22;20857;47.808;12.482;2023-11-19T06:44:16;7.20;99.90
34646;DHT22;20857;47.808;12.482;2023-11-19T06:46:41;7.40;99.90
34646;DHT22;20857;47.808;12.482;2023-11-19T06:49:07;7.30;99.90
34646;DHT22;20857;47.808;12.482;2023-11-19T06:51:34;7.40;99.90
34646;DHT22;20857;47.808;12.482;2023-11-19T06:53:59;7.40;99.90
34646;DHT22;20857;47.808;12.482;2023-11-19T06:56:25;7.30;99.90
34646;DHT22;20857;47.808;12.482;2023-11-19T06:58:51;7.30;99.90
34646;DHT22;20857;47.808;12.482;2023-11-19T07:01:17;7.40;99.90
34646;DHT22;20857;47.808;12.482;2023-11-19T07:03:47;7.50;99.90
34646;DHT22;20857;47.808;12.482;2023-11-19T07:06:13;7.50;99.90
34646;DHT22;20857;47.808;12.482;2023-11-19T07:08:40;7.70;99.90
34646;DHT22;20857;47.808;12.482;2023-11-19T07:11:06;7.80;99.90
34646;DHT22;20857;47.808;12.482;2023-11-19T07:13:32;8.00;99.90
34646;DHT22;20857;47.808;12.482;2023-11-19T07:15:57;8.10;99.90
34646;DHT22;20857;47.808;12.482;2023-11-19T07:18:24;8.30;99.90
34646;DHT22;20857;47.808;12.482;2023-11-19T07:20:50;8.40;99.90
34646;DHT22;20857;47.808;12.482;2023-11-19T07:23:15;8.40;99.90
34646;DHT22;20857;47.808;12.482;2023-11-19T07:25:44;8.40;99.90
34646;DHT22;20857;47.808;12.482;2023-11-19T07:28:12;8.30;99.90
34646;DHT22;20857;47.808;12.482;2023-11-19T07:30:38;8.10;99.90
34646;DHT22;20857;47.808;12.482;2023-11-19T07:33:04;8.10;99.90
34646;DHT22;20857;47.808;12.482;2023-11-19T07:35:31;8.10;99.90
34646;DHT22;20857;47.808;12.482;2023-11-19T07:37:57;8.00;99.90
34646;DHT22;20857;47.808;12.482;2023-11-19T07:40:23;7.90;99.90
34646;DHT22;20857;47.808;12.482;2023-11-19T07:42:49;7.90;99.90
34646;DHT22;20857;47.808;12.482;2023-11-19T07:45:15;7.80;99.90
34646;DHT22;20857;47.808;12.482;2023-11-19T07:47:40;7.90;99.90
34646;DHT22;20857;47.808;12.482;2023-11-19T07:50:06;7.90;99.90
34646;DHT22;20857;47.808;12.482;2023-11-19T07:52:32;7.90;99.90
34646;DHT22;20857;47.808;12.482;2023-11-19T07:54:57;7.90;99.90
34646;DHT22;20857;47.808;12.482;2023-11-19T07:57:23;7.90;99.90
34646;DHT22;20857;47.808;12.482;2023-11-19T07:59:49;8.00;99.90
34646;DHT22;20857;47.808;12.482;2023-11-19T08:02:15;7.90;99.90
34646;DHT22;20857;47.808;12.482;2023-11-19T08:04:40;8.00;99.90
34646;DHT22;20857;47.808;12.482;2023-11-19T08:07:10;8.00;99.90
34646;DHT22;20857;47.808;12.482;2023-11-19T08:09:36;7.90;99.90
34646;DHT22;20857;47.808;12.482;2023-11-19T08:12:03;8.00;99.90
34646;DHT22;20857;47.808;12.482;2023-11-19T08:14:29;8.00;99.90
34646;DHT22;20857;47.808;12.482;2023-11-19T08:16:56;8.00;99.90
34646;DHT22;20857;47.808;12.482;2023-11-19T08:19:22;8.10;99.90
34646;DHT22;20857;47.808;12.482;2023-11-19T08:21:48;8.20;99.90
34646;DHT22;20857;47.808;12.482;2023-11-19T08:24:13;8.20;99.90
34646;DHT22;20857;47.808;12.482;2023-11-19T08:26:39;8.30;99.90
34646;DHT22;20857;47.808;12.482;2023-11-19T08:29:05;8.40;99.90
34646;DHT22;20857;47.808;12.482;2023-11-19T08:31:30;8.30;99.90
34646;DHT22;20857;47.808;12.482;2023-11-19T08:33:56;8.20;99.90
34646;DHT22;20857;47.808;12.482;2023-11-19T08:36:22;8.30;99.90
34646;DHT22;20857;47.808;12.482;2023-11-19T08:38:47;8.50;99.90
34646;DHT22;20857;47.808;12.482;2023-11-19T08:41:13;8.50;99.90
34646;DHT22;20857;47.808;12.482;2023-11-19T08:43:39;8.40;99.90
34646;DHT22;20857;47.808;12.482;2023-11-19T08:46:10;8.40;99.90
34646;DHT22;20857;47.808;12.482;2023-11-19T08:48:36;8.40;99.90
34646;DHT22;20857;47.808;12.482;2023-11-19T08:51:05;8.40;99.90
34646;DHT22;20857;47.808;12.482;2023-11-19T08:53:31;8.40;99.90
34646;DHT22;20857;47.808;12.482;2023-11-19T08:55:56;8.40;99.90
34646;DHT22;20857;47.808;12.482;2023-11-19T08:58:22;8.40;99.90
34646;DHT22;20857;47.808;12.482;2023-11-19T09:00:47;8.40;99.90
34646;DHT22;20857;47.808;12.482;2023-11-19T09:03:13;8.40;99.90
34646;DHT22;20857;47.808;12.482;2023-11-19T09:05:38;8.40;99.90
34646;DHT22;20857;47.808;12.482;2023-11-19T09:08:04;8.50;99.90
34646;DHT22;20857;47.808;12.482;2023-11-19T09:10:30;8.60;99.90
34646;DHT22;20857;47.808;12.482;2023-11-19T09:12:56;8.60;99.90
34646;DHT22;20857;47.808;12.482;2023-11-19T09:15:21;8.90;99.90
34646;DHT22;20857;47.808;12.482;2023-11-19T09:17:47;8.70;99.90
34646;DHT22;20857;47.808;12.482;2023-11-19T09:20:12;8.60;99.90
34646;DHT22;20857;47.808;12.482;2023-11-19T09:22:43;8.60;99.90
34646;DHT22;20857;47.808;12.482;2023-11-19T09:25:08;8.70;99.90
34646;DHT22;20857;47.808;12.482;2023-11-19T09:27:34;8.70;99.90
34646;DHT22;20857;47.808;12.482;2023-11-19T09:30:00;8.70;99.90
34646;DHT22;20857;47.808;12.482;2023-11-19T09:32:26;8.80;99.90
34646;DHT22;20857;47.808;12.482;2023-11-19T09:34:51;8.80;99.90
34646;DHT22;20857;47.808;12.482;2023-11-19T09:37:17;8.70;99.90
34646;DHT22;20857;47.808;12.482;2023-11-19T09:39:42;8.70;99.90
34646;DHT22;20857;47.808;12.482;2023-11-19T09:42:12;8.80;99.90
34646;DHT22;20857;47.808;12.482;2023-11-19T09:44:38;8.70;99.90
34646;DHT22;20857;47.808;12.482;2023-11-19T09:47:05;8.80;99.90
34646;DHT22;20857;47.808;12.482;2023-11-19T09:49:33;8.70;99.90
34646;DHT22;20857;47.808;12.482;2023-11-19T09:51:59;9.00;99.90
34646;DHT22;20857;47.808;12.482;2023-11-19T09:54:25;9.20;99.90
34646;DHT22;20857;47.808;12.482;2023-11-19T09:56:51;9.40;99.90
34646;DHT22;20857;47.808;12.482;2023-11-19T09:59:17;9.50;99.90
34646;DHT22;20857;47.808;12.482;2023-11-19T10:01:45;9.60;99.90
34646;DHT22;20857;47.808;12.482;2023-11-19T10:04:15;9.70;99.90
34646;DHT22;20857;47.808;12.482;2023-11-19T10:06:42;9.60;99.90
34646;DHT22;20857;47.808;12.482;2023-11-19T10:09:08;9.40;99.90
34646;DHT22;20857;47.808;12.482;2023-11-19T10:11:33;9.50;99.90
34646;DHT22;20857;47.808;12.482;2023-11-19T10:13:59;9.50;99.90
34646;DHT22;20857;47.808;12.482;2023-11-19T10:16:30;9.50;99.90
34646;DHT22;20857;47.808;12.482;2023-11-19T10:18:56;9.60;99.90
34646;DHT22;20857;47.808;12.482;2023-11-19T10:21:22;9.70;99.90
34646;DHT22;20857;47.808;12.482;2023-11-19T10:23:53;9.90;99.90
34646;DHT22;20857;47.808;12.482;2023-11-19T10:26:22;10.50;99.90
34646;DHT22;20857;47.808;12.482;2023-11-19T10:28:48;10.80;99.90
34646;DHT22;20857;47.808;12.482;2023-11-19T10:31:18;11.10;99.90
34646;DHT22;20857;47.808;12.482;2023-11-19T10:33:45;11.60;99.90
34646;DHT22;20857;47.808;12.482;2023-11-19T10:36:11;11.80;99.90
34646;DHT22;20857;47.808;12.482;2023-11-19T10:38:38;12.10;99.90
34646;DHT22;20857;47.808;12.482;2023-11-19T10:41:04;12.10;99.90
34646;DHT22;20857;47.808;12.482;2023-11-19T10:43:31;12.10;99.90
34646;DHT22;20857;47.808;12.482;2023-11-19T10:46:13;11.90;99.90
34646;DHT22;20857;47.808;12.482;2023-11-19T10:48:39;11.60;99.90
34646;DHT22;20857;47.808;12.482;2023-11-19T10:51:06;11.50;99.90
34646;DHT22;20857;47.808;12.482;2023-11-19T10:53:42;11.40;99.90
34646;DHT22;20857;47.808;12.482;2023-11-19T10:56:13;11.40;99.90
34646;DHT22;20857;47.808;12.482;2023-11-19T10:58:44;11.40;99.90
34646;DHT22;20857;47.808;12.482;2023-11-19T11:01:19;11.30;99.90
34646;DHT22;20857;47.808;12.482;2023-11-19T11:03:46;11.30;99.90
34646;DHT22;20857;47.808;12.482;2023-11-19T11:06:13;11.60;99.90
34646;DHT22;20857;47.808;12.482;2023-11-19T11:08:39;12.30;99.90
34646;DHT22;20857;47.808;12.482;2023-11-19T11:11:05;12.60;99.90
34646;DHT22;20857;47.808;12.482;2023-11-19T11:13:32;12.90;99.90
34646;DHT22;20857;47.808;12.482;2023-11-19T11:15:59;13.20;99.90
34646;DHT22;20857;47.808;12.482;2023-11-19T11:18:26;13.30;99.90
34646;DHT22;20857;47.808;12.482;2023-11-19T11:21:08;13.30;99.90
34646;DHT22;20857;47.808;12.482;2023-11-19T11:29:26;13.30;99.90
34646;DHT22;20857;47.808;12.482;2023-11-19T11:37:33;13.50;99.90
34646;DHT22;20857;47.808;12.482;2023-11-19T11:40:01;13.40;99.90
34646;DHT22;20857;47.808;12.482;2023-11-19T11:42:33;13.40;99.90
34646;DHT22;20857;47.808;12.482;2023-11-19T11:45:00;13.50;99.90
34646;DHT22;20857;47.808;12.482;2023-11-19T11:47:26;13.60;99.90
34646;DHT22;20857;47.808;12.482;2023-11-19T11:49:52;13.60;99.90
34646;DHT22;20857;47.808;12.482;2023-11-19T11:52:17;13.70;99.90
34646;DHT22;20857;47.808;12.482;2023-11-19T11:54:44;13.70;99.90
34646;DHT22;20857;47.808;12.482;2023-11-19T11:57:14;13.70;99.90
34646;DHT22;20857;47.808;12.482;2023-11-19T12:02:16;13.80;99.90
34646;DHT22;20857;47.808;12.482;2023-11-19T12:04:43;14.00;99.90
34646;DHT22;20857;47.808;12.482;2023-11-19T12:07:14;13.90;99.90
34646;DHT22;20857;47.808;12.482;2023-11-19T12:09:48;13.90;99.90
34646;DHT22;20857;47.808;12.482;2023-11-19T12:20:03;13.70;99.90
34646;DHT22;20857;47.808;12.482;2023-11-19T12:22:31;13.70;99.90
34646;DHT22;20857;47.808;12.482;2023-11-19T12:24:56;13.60;99.90
34646;DHT22;20857;47.808;12.482;2023-11-19T12:27:22;13.70;99.90
34646;DHT22;20857;47.808;12.482;2023-11-19T12:29:48;13.60;99.90
34646;DHT22;20857;47.808;12.482;2023-11-19T12:32:14;13.60;99.90
34646;DHT22;20857;47.808;12.482;2023-11-19T12:34:40;13.60;99.90
34646;DHT22;20857;47.808;12.482;2023-11-19T12:37:06;13.50;99.90
34646;DHT22;20857;47.808;12.482;2023-11-19T12:39:31;13.60;99.90
34646;DHT22;20857;47.808;12.482;2023-11-19T12:41:57;13.60;99.90
34646;DHT22;20857;47.808;12.482;2023-11-19T12:44:26;13.70;99.90
34646;DHT22;20857;47.808;12.482;2023-11-19T12:47:05;13.70;99.90
34646;DHT22;20857;47.808;12.482;2023-11-19T12:49:36;13.70;99.90
34646;DHT22;20857;47.808;12.482;2023-11-19T12:52:02;13.70;99.90
34646;DHT22;20857;47.808;12.482;2023-11-19T12:54:36;13.80;99.90
34646;DHT22;20857;47.808;12.482;2023-11-19T12:57:03;14.00;99.90
34646;DHT22;20857;47.808;12.482;2023-11-19T12:59:30;14.10;99.90
34646;DHT22;20857;47.808;12.482;2023-11-19T13:01:57;14.10;99.90
34646;DHT22;20857;47.808;12.482;2023-11-19T13:04:22;14.20;99.90
34646;DHT22;20857;47.808;12.482;2023-11-19T13:06:49;14.20;99.90
34646;DHT22;20857;47.808;12.482;2023-11-19T13:09:25;14.10;99.90
34646;DHT22;20857;47.808;12.482;2023-11-19T13:11:51;14.20;99.90
34646;DHT22;20857;47.808;12.482;2023-11-19T13:14:18;14.20;99.90
34646;DHT22;20857;47.808;12.482;2023-11-19T13:16:44;14.20;99.90
34646;DHT22;20857;47.808;12.482;2023-11-19T13:19:16;14.30;99.90
34646;DHT22;20857;47.808;12.482;2023-11-19T13:21:44;14.40;99.90
34646;DHT22;20857;47.808;12.482;2023-11-19T13:24:12;14.50;99.90
34646;DHT22;20857;47.808;12.482;2023-11-19T13:26:38;14.50;99.90
34646;DHT22;20857;47.808;12.482;2023-11-19T13:29:04;14.40;99.90
34646;DHT22;20857;47.808;12.482;2023-11-19T13:31:29;14.30;99.90
34646;DHT22;20857;47.808;12.482;2023-11-19T13:33:55;14.20;99.90
34646;DHT22;20857;47.808;12.482;2023-11-19T13:36:22;14.20;99.90
34646;DHT22;20857;47.808;12.482;2023-11-19T13:38:47;14.10;99.90
34646;DHT22;20857;47.808;12.482;2023-11-19T13:41:13;14.10;99.90
34646;DHT22;20857;47.808;12.482;2023-11-19T13:43:39;14.10;99.90
34646;DHT22;20857;47.808;12.482;2023-11-19T13:46:05;14.10;99.90
34646;DHT22;20857;47.808;12.482;2023-11-19T13:48:31;14.10;99.90
34646;DHT22;20857;47.808;12.482;2023-11-19T13:50:56;14.00;99.90
34646;DHT22;20857;47.808;12.482;2023-11-19T13:53:22;14.00;99.90
34646;DHT22;20857;47.808;12.482;2023-11-19T13:55:50;14.00;99.90
34646;DHT22;20857;47.808;12.482;2023-11-19T13:58:16;13.80;99.90
34646;DHT22;20857;47.808;12.482;2023-11-19T14:00:42;13.80;99.90
34646;DHT22;20857;47.808;12.482;2023-11-19T14:03:09;13.60;99.90
34646;DHT22;20857;47.808;12.482;2023-11-19T14:05:36;13.50;99.90
34646;DHT22;20857;47.808;12.482;2023-11-19T14:08:02;13.40;99.90
34646;DHT22;20857;47.808;12.482;2023-11-19T14:10:28;13.30;99.90
34646;DHT22;20857;47.808;12.482;2023-11-19T14:12:54;13.30;99.90
34646;DHT22;20857;47.808;12.482;2023-11-19T14:15:20;13.20;99.90
34646;DHT22;20857;47.808;12.482;2023-11-19T14:17:45;13.20;99.90
34646;DHT22;20857;47.808;12.482;2023-11-19T14:20:11;13.20;99.90
34646;DHT22;20857;47.808;12.482;2023-11-19T14:22:41;13.20;99.90
34646;DHT22;20857;47.808;12.482;2023-11-19T14:25:08;13.20;99.90
34646;DHT22;20857;47.808;12.482;2023-11-19T14:27:39;13.20;99.90
34646;DHT22;20857;47.808;12.482;2023-11-19T14:30:06;13.10;99.90
34646;DHT22;20857;47.808;12.482;2023-11-19T14:32:32;13.10;99.90
34646;DHT22;20857;47.808;12.482;2023-11-19T14:34:58;13.10;99.90
34646;DHT22;20857;47.808;12.482;2023-11-19T14:37:24;13.10;99.90
34646;DHT22;20857;47.808;12.482;2023-11-19T14:39:49;13.00;99.90
34646;DHT22;20857;47.808;12.482;2023-11-19T14:42:16;13.00;99.90
34646;DHT22;20857;47.808;12.482;2023-11-19T14:44:42;12.90;99.90
34646;DHT22;20857;47.808;12.482;2023-11-19T14:47:08;12.80;99.90
34646;DHT22;20857;47.808;12.482;2023-11-19T14:49:36;12.80;99.90
34646;DHT22;20857;47.808;12.482;2023-11-19T14:52:03;12.90;99.90
34646;DHT22;20857;47.808;12.482;2023-11-19T14:54:29;12.80;99.90
34646;DHT22;20857;47.808;12.482;2023-11-19T14:56:55;12.80;99.90
34646;DHT22;20857;47.808;12.482;2023-11-19T14:59:20;12.80;99.90
34646;DHT22;20857;47.808;12.482;2023-11-19T15:01:46;12.70;99.90
34646;DHT22;20857;47.808;12.482;2023-11-19T15:04:11;12.70;99.90
34646;DHT22;20857;47.808;12.482;2023-11-19T15:06:37;12.80;99.90
34646;DHT22;20857;47.808;12.482;2023-11-19T15:09:06;12.80;99.90
34646;DHT22;20857;47.808;12.482;2023-11-19T15:11:33;12.80;99.90
34646;DHT22;20857;47.808;12.482;2023-11-19T15:13:58;12.80;99.90
34646;DHT22;20857;47.808;12.482;2023-11-19T15:16:25;12.90;99.90
34646;DHT22;20857;47.808;12.482;2023-11-19T15:18:56;12.90;99.90
34646;DHT22;20857;47.808;12.482;2023-11-19T15:21:25;13.00;99.90
34646;DHT22;20857;47.808;12.482;2023-11-19T15:23:51;12.80;99.90
34646;DHT22;20857;47.808;12.482;2023-11-19T15:26:17;12.80;99.90
34646;DHT22;20857;47.808;12.482;2023-11-19T15:28:43;13.00;99.90
34646;DHT22;20857;47.808;12.482;2023-11-19T15:31:08;13.00;99.90
34646;DHT22;20857;47.808;12.482;2023-11-19T15:33:35;13.00;99.90
34646;DHT22;20857;47.808;12.482;2023-11-19T15:36:01;12.90;99.90
34646;DHT22;20857;47.808;12.482;2023-11-19T15:38:28;12.80;99.90
34646;DHT22;20857;47.808;12.482;2023-11-19T15:40:54;12.90;99.90
34646;DHT22;20857;47.808;12.482;2023-11-19T15:43:20;12.80;99.90